Terminal Aerodrome Forecast
Issued by NWS

Home | Current Version | Previous Version | Text Only | Print | Product List | Glossary On
Versions: 1 2 3 4 5 6 7 8 9 10 11
000
FTUS41 KBTV 011127
TAFRUT
TAF
KRUT 011127Z 0112/0212 15007KT P6SM OVC120
     FM011500 17008G15KT P6SM OVC050
     FM011700 17008G15KT 2SM -SN BR OVC025
     FM012300 16008KT 1 1/2SM -SN BR OVC015
     FM020800 29005KT 3SM -SN BR OVC020
      AMD LTD TO CLD VIS AND WIND=

USA.gov is the U.S. government's official web portal to all federal, state and local government web resources and services.